Time;durP1;ratioP1;P1;durP2;ratioP2;P2;SDS_P1;SDS_P2;PMS_P1;PMS_P2;Temp;Humidity;BMP_temperature;BMP_pressure;BME280_temperature;BME280_humidity;BME280_pressure;Samples;Min_cycle;Max_cycle;Signal;HPM_P1;HPM_P2
2023/08/17 00:02:16;;;;;;;3.60;3.17;;;19.20;99.90;;;;;;5039630;28;20483;-83
2023/08/17 00:04:44;;;;;;;4.10;3.73;;;19.10;99.90;;;;;;5040078;28;20459;-82
2023/08/17 00:07:11;;;;;;;3.30;2.97;;;19.10;99.90;;;;;;5040119;28;20441;-83
2023/08/17 00:09:38;;;;;;;4.73;3.70;;;19.10;99.90;;;;;;5040042;28;20452;-83
2023/08/17 00:12:05;;;;;;;7.00;4.97;;;19.10;99.90;;;;;;5039792;28;20477;-84
2023/08/17 00:14:32;;;;;;;6.00;4.03;;;19.00;99.90;;;;;;5040433;28;20480;-84
2023/08/17 00:16:59;;;;;;;4.50;4.10;;;19.00;99.90;;;;;;5040861;28;20860;-84
2023/08/17 00:19:26;;;;;;;5.10;3.90;;;19.00;99.90;;;;;;5040988;28;20532;-84
2023/08/17 00:21:55;;;;;;;6.03;4.00;;;19.00;99.90;;;;;;5041183;28;20472;-84
2023/08/17 00:24:22;;;;;;;4.57;3.90;;;19.00;99.90;;;;;;5039044;28;20475;-84
2023/08/17 00:26:49;;;;;;;5.40;3.50;;;19.00;99.90;;;;;;5037545;28;20449;-84
2023/08/17 00:29:17;;;;;;;5.97;3.90;;;19.00;99.90;;;;;;5032975;28;20902;-84
2023/08/17 00:31:43;;;;;;;4.73;3.00;;;19.00;99.90;;;;;;5034613;28;20561;-82
2023/08/17 00:34:10;;;;;;;3.53;3.23;;;19.00;99.90;;;;;;5038519;28;20453;-83
2023/08/17 00:36:37;;;;;;;4.23;3.80;;;19.00;99.90;;;;;;5038152;28;20459;-84
2023/08/17 00:39:05;;;;;;;4.03;3.70;;;18.90;99.90;;;;;;5039260;28;20493;-83
2023/08/17 00:41:32;;;;;;;5.00;3.13;;;18.90;99.90;;;;;;5039430;28;20485;-84
2023/08/17 00:44:01;;;;;;;6.30;3.50;;;18.90;99.90;;;;;;5040048;28;20463;-84
2023/08/17 00:46:28;;;;;;;3.97;3.60;;;18.90;99.90;;;;;;5036690;28;20540;-84
2023/08/17 00:48:55;;;;;;;4.33;3.10;;;18.90;99.90;;;;;;5048745;28;20444;-82
2023/08/17 00:51:24;;;;;;;5.43;3.70;;;18.90;99.90;;;;;;5045108;28;20464;-82
2023/08/17 00:53:51;;;;;;;6.40;4.10;;;18.80;99.90;;;;;;5037682;28;20567;-82
2023/08/17 00:56:20;;;;;;;6.83;3.30;;;18.80;99.90;;;;;;5037469;28;20460;-84
2023/08/17 00:58:47;;;;;;;5.70;3.93;;;18.80;99.90;;;;;;5037379;28;20485;-83
2023/08/17 01:01:14;;;;;;;5.50;3.20;;;18.80;99.90;;;;;;5036843;28;20483;-82
2023/08/17 01:03:41;;;;;;;3.80;3.50;;;18.90;99.90;;;;;;5037783;28;20461;-83
2023/08/17 01:06:08;;;;;;;5.63;3.70;;;18.80;99.90;;;;;;5038582;28;20452;-83
2023/08/17 01:08:35;;;;;;;3.93;3.63;;;18.80;99.90;;;;;;5038458;28;20866;-84
2023/08/17 01:11:10;;;;;;;4.83;3.80;;;18.80;99.90;;;;;;5038335;28;21059;-83
2023/08/17 01:13:48;;;;;;;5.70;4.07;;;18.80;99.90;;;;;;5038875;28;20446;-84
2023/08/17 01:16:22;;;;;;;5.60;3.90;;;18.80;99.90;;;;;;5036593;28;20459;-83
2023/08/17 01:18:51;;;;;;;5.17;4.03;;;18.80;99.90;;;;;;5035230;28;20491;-83
2023/08/17 01:21:18;;;;;;;5.27;3.70;;;18.70;99.90;;;;;;5034200;28;20471;-83
2023/08/17 01:23:47;;;;;;;4.70;3.40;;;18.70;99.90;;;;;;5036975;28;20444;-83
2023/08/17 01:26:15;;;;;;;4.97;3.47;;;18.70;99.90;;;;;;5033751;28;20475;-83
2023/08/17 01:28:43;;;;;;;4.03;3.43;;;18.70;99.90;;;;;;5034302;28;20468;-82
2023/08/17 01:31:15;;;;;;;5.90;3.90;;;18.70;99.90;;;;;;5034377;28;20468;-84
2023/08/17 01:33:47;;;;;;;5.20;3.30;;;18.70;99.90;;;;;;5034741;28;20520;-85
2023/08/17 01:36:21;;;;;;;5.63;3.90;;;18.70;99.90;;;;;;5034643;28;20445;-82
2023/08/17 01:38:52;;;;;;;5.27;3.93;;;18.70;99.90;;;;;;5034781;28;20485;-83
2023/08/17 01:41:21;;;;;;;7.00;4.70;;;18.70;99.90;;;;;;5033952;28;20784;-82
2023/08/17 01:43:49;;;;;;;5.53;3.47;;;18.70;99.90;;;;;;5034798;28;20547;-83
2023/08/17 01:46:17;;;;;;;4.33;3.13;;;18.70;99.90;;;;;;5033411;28;20463;-84
2023/08/17 01:48:43;;;;;;;4.27;3.60;;;18.70;99.90;;;;;;5033937;28;20448;-83
2023/08/17 01:51:12;;;;;;;6.67;3.67;;;18.70;99.90;;;;;;5033807;28;20464;-83
2023/08/17 01:53:38;;;;;;;4.90;3.93;;;18.60;99.90;;;;;;5034599;28;20453;-85
2023/08/17 01:56:07;;;;;;;5.53;4.57;;;18.60;99.90;;;;;;5034110;28;20455;-82
2023/08/17 01:58:33;;;;;;;5.03;4.60;;;18.60;99.90;;;;;;5033637;28;20495;-83
2023/08/17 02:01:00;;;;;;;6.93;3.90;;;18.60;99.90;;;;;;5033793;28;20481;-83
2023/08/17 02:03:28;;;;;;;8.57;4.00;;;18.60;99.90;;;;;;5033814;28;20457;-83
2023/08/17 02:05:56;;;;;;;4.40;4.00;;;18.70;99.90;;;;;;5033870;28;20511;-83
2023/08/17 02:08:23;;;;;;;3.93;3.60;;;18.60;99.90;;;;;;5034140;28;20452;-83
2023/08/17 02:10:50;;;;;;;5.53;3.97;;;18.60;99.90;;;;;;5034165;28;20480;-85
2023/08/17 02:13:19;;;;;;;5.27;3.97;;;18.60;99.90;;;;;;5034527;28;20455;-83
2023/08/17 02:15:47;;;;;;;4.10;3.70;;;18.60;99.90;;;;;;5034352;28;20460;-85
2023/08/17 02:18:13;;;;;;;4.23;3.73;;;18.60;99.90;;;;;;5034293;28;20480;-84
2023/08/17 02:20:40;;;;;;;9.67;4.10;;;18.50;99.90;;;;;;5035002;28;20477;-83
2023/08/17 02:23:07;;;;;;;4.90;3.63;;;18.60;99.90;;;;;;5035650;28;20536;-84
2023/08/17 02:25:35;;;;;;;4.57;4.17;;;18.50;99.90;;;;;;5034714;28;20543;-85
2023/08/17 02:28:02;;;;;;;7.23;4.20;;;18.60;99.90;;;;;;5035550;28;20456;-85
2023/08/17 02:30:30;;;;;;;4.17;3.77;;;18.60;99.90;;;;;;5035537;28;20519;-83
2023/08/17 02:32:57;;;;;;;8.37;4.60;;;18.60;99.90;;;;;;5036264;28;20455;-85
2023/08/17 02:35:24;;;;;;;5.80;3.83;;;18.50;99.90;;;;;;5035740;28;20528;-83
2023/08/17 02:37:51;;;;;;;4.00;3.60;;;18.50;99.90;;;;;;5036302;28;20495;-85
2023/08/17 02:40:18;;;;;;;9.33;4.47;;;18.50;99.90;;;;;;5036562;28;20473;-84
2023/08/17 02:42:44;;;;;;;4.20;3.80;;;18.60;99.90;;;;;;5036237;28;20459;-85
2023/08/17 02:45:11;;;;;;;4.43;3.70;;;18.50;99.90;;;;;;5037147;28;20448;-85
2023/08/17 02:47:39;;;;;;;4.60;3.97;;;18.50;99.90;;;;;;5037572;28;20821;-84
2023/08/17 02:50:07;;;;;;;4.13;3.73;;;18.50;99.90;;;;;;5037905;28;20548;-84
2023/08/17 02:52:34;;;;;;;6.10;3.90;;;18.50;99.90;;;;;;5039184;28;20463;-83
2023/08/17 02:55:01;;;;;;;7.23;4.40;;;18.50;99.90;;;;;;5042745;28;20463;-85
2023/08/17 02:57:28;;;;;;;5.17;4.03;;;18.50;99.90;;;;;;5044929;28;20460;-83
2023/08/17 02:59:55;;;;;;;5.47;4.00;;;18.50;99.90;;;;;;5032742;28;20499;-83
2023/08/17 03:02:21;;;;;;;5.00;4.10;;;18.50;99.90;;;;;;5033505;28;20448;-83
2023/08/17 03:04:50;;;;;;;4.17;3.87;;;18.50;99.90;;;;;;5033803;28;20455;-83
2023/08/17 03:07:16;;;;;;;5.67;4.80;;;18.50;99.90;;;;;;5033105;28;20590;-83
2023/08/17 03:09:43;;;;;;;4.83;4.33;;;18.60;99.90;;;;;;5033140;28;20540;-83
2023/08/17 03:12:10;;;;;;;6.73;4.67;;;18.60;99.90;;;;;;5033031;28;20473;-83
2023/08/17 03:14:37;;;;;;;6.80;4.60;;;18.50;99.90;;;;;;5033105;28;20535;-85
2023/08/17 03:17:03;;;;;;;5.53;5.03;;;18.50;99.90;;;;;;5033342;28;20446;-83
2023/08/17 03:19:30;;;;;;;6.50;4.87;;;18.50;99.90;;;;;;5033850;28;20485;-84
2023/08/17 03:21:58;;;;;;;8.97;4.70;;;18.50;99.90;;;;;;5033817;28;20472;-83
2023/08/17 03:24:25;;;;;;;6.03;5.13;;;18.50;99.90;;;;;;5033757;28;20452;-83
2023/08/17 03:26:52;;;;;;;6.03;5.33;;;18.50;99.90;;;;;;5032001;28;20459;-84
2023/08/17 03:29:19;;;;;;;6.10;5.00;;;18.50;99.90;;;;;;5033909;28;20949;-83
2023/08/17 03:31:45;;;;;;;4.80;4.30;;;18.50;99.90;;;;;;5033869;28;20495;-83
2023/08/17 03:34:12;;;;;;;5.53;5.07;;;18.50;99.90;;;;;;5033304;28;20449;-83
2023/08/17 03:36:39;;;;;;;7.30;5.33;;;18.50;99.90;;;;;;5033472;28;20440;-83
2023/08/17 03:39:07;;;;;;;5.13;4.63;;;18.50;99.90;;;;;;5033641;28;20579;-83
2023/08/17 03:41:36;;;;;;;6.83;4.90;;;18.50;99.90;;;;;;5033589;28;20872;-84
2023/08/17 03:44:03;;;;;;;6.53;5.27;;;18.50;99.90;;;;;;5029111;28;20473;-83
2023/08/17 03:46:30;;;;;;;9.50;5.50;;;18.50;99.90;;;;;;5026037;28;20517;-83
2023/08/17 03:48:57;;;;;;;6.67;5.30;;;18.50;99.90;;;;;;5031659;28;20457;-83
2023/08/17 03:51:23;;;;;;;5.03;4.63;;;18.40;99.90;;;;;;5028693;28;20466;-86
2023/08/17 03:53:50;;;;;;;6.13;4.27;;;18.40;99.90;;;;;;5037005;28;20459;-85
2023/08/17 03:56:18;;;;;;;5.63;5.10;;;18.40;99.90;;;;;;5037357;28;20448;-83
2023/08/17 03:58:45;;;;;;;5.93;4.63;;;18.40;99.90;;;;;;5036745;28;20491;-85
2023/08/17 04:01:13;;;;;;;5.27;4.50;;;18.40;99.90;;;;;;5030542;28;20478;-85
2023/08/17 04:03:39;;;;;;;6.97;4.87;;;18.40;99.90;;;;;;5037973;28;20460;-82
2023/08/17 04:06:07;;;;;;;8.87;5.40;;;18.40;99.90;;;;;;5037689;28;20455;-83
2023/08/17 04:08:33;;;;;;;5.83;4.77;;;18.40;99.90;;;;;;5035256;28;20453;-85
2023/08/17 04:11:00;;;;;;;4.90;4.40;;;18.40;99.90;;;;;;5028470;28;20564;-83
2023/08/17 04:13:28;;;;;;;5.40;4.63;;;18.40;99.90;;;;;;5037488;28;20459;-84
2023/08/17 04:15:55;;;;;;;7.63;5.00;;;18.40;99.90;;;;;;5037968;28;20455;-83
2023/08/17 04:18:22;;;;;;;6.70;5.73;;;18.30;99.90;;;;;;5029857;28;20489;-85
2023/08/17 04:20:49;;;;;;;6.30;4.97;;;18.30;99.90;;;;;;5036785;28;20481;-80
2023/08/17 04:23:16;;;;;;;7.87;5.70;;;18.30;99.90;;;;;;5026846;28;20437;-83
2023/08/17 04:25:44;;;;;;;5.90;5.30;;;18.30;99.90;;;;;;5034586;28;20801;-82
2023/08/17 04:28:11;;;;;;;6.90;4.93;;;18.30;99.90;;;;;;5039620;28;20966;-82
2023/08/17 04:30:40;;;;;;;7.33;5.37;;;18.30;99.90;;;;;;5039771;28;20473;-84
2023/08/17 04:33:07;;;;;;;5.50;5.00;;;18.30;99.90;;;;;;5039569;28;20449;-84
2023/08/17 04:35:34;;;;;;;6.20;5.60;;;18.30;99.90;;;;;;5038766;28;20468;-85
2023/08/17 04:38:01;;;;;;;6.03;5.53;;;18.30;99.90;;;;;;5040187;28;20516;-83
2023/08/17 04:40:28;;;;;;;8.00;6.00;;;18.30;99.90;;;;;;5039253;28;20523;-84
2023/08/17 04:42:55;;;;;;;6.87;6.20;;;18.30;99.90;;;;;;5040583;28;20452;-85
2023/08/17 04:45:22;;;;;;;7.23;6.20;;;18.30;99.90;;;;;;5040181;28;20453;-84
2023/08/17 04:47:51;;;;;;;6.40;5.80;;;18.30;99.90;;;;;;5042787;28;20511;-84
2023/08/17 04:50:18;;;;;;;8.17;6.10;;;18.30;99.90;;;;;;5048277;28;20473;-82
2023/08/17 04:52:45;;;;;;;9.70;6.63;;;18.30;99.90;;;;;;5050526;28;20444;-84
2023/08/17 04:55:12;;;;;;;7.90;6.27;;;18.30;99.90;;;;;;5040926;28;20451;-82
2023/08/17 04:57:39;;;;;;;8.80;6.83;;;18.30;99.90;;;;;;5035203;28;20471;-84
2023/08/17 05:00:09;;;;;;;9.40;6.53;;;18.30;99.90;;;;;;5029397;28;20497;-84
2023/08/17 05:02:36;;;;;;;8.27;7.37;;;18.30;99.90;;;;;;5043347;28;20450;-83
2023/08/17 05:05:06;;;;;;;7.50;5.73;;;18.30;99.90;;;;;;5034498;28;20462;-84
2023/08/17 05:07:33;;;;;;;7.50;5.87;;;18.30;99.90;;;;;;5030703;28;20539;-84
2023/08/17 05:10:00;;;;;;;10.77;6.20;;;18.30;99.90;;;;;;5034110;28;20455;-85
2023/08/17 05:12:27;;;;;;;7.00;5.90;;;18.30;99.90;;;;;;5029446;28;21037;-84
2023/08/17 05:14:54;;;;;;;9.37;6.87;;;18.30;99.90;;;;;;5034515;28;20456;-84
2023/08/17 05:17:20;;;;;;;9.27;6.80;;;18.30;99.90;;;;;;5035973;28;20455;-83
2023/08/17 05:19:47;;;;;;;8.07;6.53;;;18.30;99.90;;;;;;5038713;28;20500;-82
2023/08/17 05:22:15;;;;;;;7.33;5.80;;;18.40;99.90;;;;;;5040262;28;20497;-84
2023/08/17 05:24:42;;;;;;;7.13;6.43;;;18.40;99.90;;;;;;5039853;28;20955;-84
2023/08/17 05:27:09;;;;;;;7.43;6.73;;;18.40;99.90;;;;;;5033809;28;20453;-85
2023/08/17 05:29:36;;;;;;;7.67;6.80;;;18.30;99.90;;;;;;5032926;28;20449;-85
2023/08/17 05:32:03;;;;;;;7.57;6.87;;;18.30;99.90;;;;;;5037459;28;20484;-84
2023/08/17 05:34:29;;;;;;;6.67;5.90;;;18.30;99.90;;;;;;5030106;28;20453;-85
2023/08/17 05:36:56;;;;;;;12.20;6.37;;;18.30;99.90;;;;;;5035184;28;20456;-85
2023/08/17 05:39:24;;;;;;;8.30;6.00;;;18.30;99.90;;;;;;5039182;28;20584;-83
2023/08/17 05:41:51;;;;;;;7.80;6.90;;;18.30;99.90;;;;;;5097274;22;20501;-85
2023/08/17 05:44:19;;;;;;;8.33;6.20;;;18.30;99.90;;;;;;5082958;28;20475;-85
2023/08/17 05:46:45;;;;;;;6.93;6.23;;;18.40;99.90;;;;;;5061083;28;20522;-87
2023/08/17 05:49:12;;;;;;;8.77;6.50;;;18.30;99.90;;;;;;5064204;28;20534;-85
2023/08/17 05:51:39;;;;;;;8.97;7.43;;;18.30;99.90;;;;;;5061391;28;20491;-85
2023/08/17 05:54:07;;;;;;;7.30;6.20;;;18.40;99.90;;;;;;5063626;28;20463;-87
2023/08/17 05:56:35;;;;;;;8.60;5.00;;;18.40;99.90;;;;;;5029523;28;20457;-85
2023/08/17 05:59:02;;;;;;;7.47;6.67;;;18.40;99.90;;;;;;5026409;28;20524;-85
2023/08/17 06:01:28;;;;;;;10.00;6.77;;;18.40;99.90;;;;;;5036971;28;20518;-85
2023/08/17 06:03:55;;;;;;;9.60;7.43;;;18.40;99.90;;;;;;5036122;28;20471;-87
2023/08/17 06:06:22;;;;;;;8.50;6.50;;;18.40;99.90;;;;;;5031786;28;20533;-87
2023/08/17 06:08:49;;;;;;;9.43;5.80;;;18.40;99.90;;;;;;5025976;28;20477;-85
2023/08/17 06:11:16;;;;;;;6.67;5.60;;;18.40;99.90;;;;;;5025411;28;20512;-85
2023/08/17 06:13:44;;;;;;;10.90;7.60;;;18.40;99.90;;;;;;5024923;28;20488;-87
2023/08/17 06:16:11;;;;;;;7.90;6.73;;;18.40;99.90;;;;;;5038764;28;20920;-86
2023/08/17 06:18:38;;;;;;;9.13;6.40;;;18.40;99.90;;;;;;5055097;28;20544;-86
2023/08/17 06:21:05;;;;;;;10.17;6.90;;;18.50;99.90;;;;;;5045156;28;20556;-84
2023/08/17 06:23:32;;;;;;;10.70;7.60;;;18.40;99.90;;;;;;5042759;28;20884;-86
2023/08/17 06:25:59;;;;;;;10.87;8.83;;;18.40;99.90;;;;;;5042141;28;20453;-85
2023/08/17 06:28:26;;;;;;;10.03;7.80;;;18.50;99.90;;;;;;5042646;28;20445;-85
2023/08/17 06:30:55;;;;;;;8.77;7.97;;;18.50;99.90;;;;;;5041821;28;20539;-85
2023/08/17 06:33:21;;;;;;;9.27;8.30;;;18.50;99.90;;;;;;5040465;28;20965;-87
2023/08/17 06:35:49;;;;;;;14.27;8.37;;;18.50;99.90;;;;;;5040751;28;20499;-86
2023/08/17 06:38:15;;;;;;;9.60;7.53;;;18.60;99.90;;;;;;5041806;28;20488;-87
2023/08/17 06:40:42;;;;;;;10.57;7.20;;;18.60;99.90;;;;;;5041837;28;20492;-87
2023/08/17 06:43:10;;;;;;;8.67;7.33;;;18.60;99.90;;;;;;5045627;28;20493;-86
2023/08/17 06:45:36;;;;;;;13.40;9.47;;;18.60;99.90;;;;;;5056085;28;20463;-89
2023/08/17 06:48:05;;;;;;;14.37;10.40;;;18.60;99.90;;;;;;5056175;28;20517;-86
2023/08/17 06:50:32;;;;;;;14.23;9.30;;;18.60;99.90;;;;;;5056480;28;20495;-88
2023/08/17 06:52:59;;;;;;;14.80;10.77;;;18.60;99.90;;;;;;5056759;28;20472;-87
2023/08/17 06:55:25;;;;;;;15.00;10.40;;;18.60;99.90;;;;;;5050725;28;20441;-84
2023/08/17 06:57:52;;;;;;;12.43;10.83;;;18.60;99.90;;;;;;5038452;28;20830;-84
2023/08/17 07:00:20;;;;;;;11.27;9.20;;;18.70;99.90;;;;;;5037059;28;20495;-84
2023/08/17 07:02:47;;;;;;;13.00;9.77;;;18.70;99.90;;;;;;5037195;28;20549;-84
2023/08/17 07:05:16;;;;;;;14.07;10.17;;;18.70;99.90;;;;;;5036546;28;20448;-84
2023/08/17 07:07:43;;;;;;;13.70;11.43;;;18.70;99.90;;;;;;5036342;28;20480;-85
2023/08/17 07:10:10;;;;;;;15.73;10.50;;;18.70;99.90;;;;;;5036716;28;20452;-84
2023/08/17 07:12:37;;;;;;;17.37;11.53;;;18.70;99.90;;;;;;5036512;28;20534;-86
2023/08/17 07:15:05;;;;;;;13.00;10.20;;;18.70;99.90;;;;;;5036488;28;20503;-84
2023/08/17 07:17:33;;;;;;;11.57;10.37;;;18.80;99.90;;;;;;5036870;28;20456;-84
2023/08/17 07:20:00;;;;;;;15.67;11.63;;;18.70;99.90;;;;;;5036436;28;20485;-83
2023/08/17 07:22:29;;;;;;;11.80;10.50;;;18.80;99.90;;;;;;5036289;28;20468;-84
2023/08/17 07:24:55;;;;;;;15.40;11.63;;;18.70;99.90;;;;;;5042558;28;20532;-86
2023/08/17 07:27:22;;;;;;;12.53;11.23;;;18.70;99.90;;;;;;5040863;28;20444;-85
2023/08/17 07:29:49;;;;;;;14.70;12.10;;;18.70;99.90;;;;;;5041355;28;20481;-86
2023/08/17 07:32:16;;;;;;;11.80;10.30;;;18.70;99.90;;;;;;5040935;28;20559;-86
2023/08/17 07:34:43;;;;;;;14.07;11.73;;;18.70;99.90;;;;;;5040481;28;20432;-83
2023/08/17 07:37:11;;;;;;;14.97;10.80;;;18.70;99.90;;;;;;5040262;28;20461;-85
2023/08/17 07:39:39;;;;;;;11.13;9.70;;;18.70;99.90;;;;;;5040358;28;20488;-85
2023/08/17 07:42:06;;;;;;;11.50;10.30;;;18.80;99.90;;;;;;5039632;28;20481;-83
2023/08/17 07:44:34;;;;;;;12.83;11.43;;;18.80;99.90;;;;;;5040456;28;20504;-84
2023/08/17 07:47:01;;;;;;;14.63;11.77;;;18.90;99.90;;;;;;5040355;28;20452;-85
2023/08/17 07:49:29;;;;;;;16.80;13.70;;;18.90;99.90;;;;;;5039684;28;20455;-84
2023/08/17 07:51:56;;;;;;;14.33;12.57;;;18.90;99.90;;;;;;5039256;28;20957;-84
2023/08/17 07:54:23;;;;;;;15.93;12.70;;;18.90;99.90;;;;;;5039679;28;20488;-86
2023/08/17 07:56:51;;;;;;;14.83;13.23;;;18.90;99.90;;;;;;5039137;28;20452;-84
2023/08/17 07:59:18;;;;;;;12.53;10.80;;;18.90;99.90;;;;;;5038774;28;20531;-84
2023/08/17 08:01:44;;;;;;;12.30;11.17;;;19.00;99.90;;;;;;5039469;28;20540;-84
2023/08/17 08:04:11;;;;;;;11.60;10.47;;;19.00;99.90;;;;;;5039096;28;20468;-84
2023/08/17 08:06:38;;;;;;;13.53;12.13;;;19.00;99.90;;;;;;5039101;28;20452;-84
2023/08/17 08:09:06;;;;;;;14.07;11.50;;;19.00;99.90;;;;;;5039030;28;20507;-83
2023/08/17 08:11:33;;;;;;;15.40;11.50;;;19.00;99.90;;;;;;5038769;28;20526;-84
2023/08/17 08:14:01;;;;;;;12.63;10.70;;;19.00;99.90;;;;;;5039000;28;20444;-86
2023/08/17 08:16:30;;;;;;;13.50;12.10;;;19.00;99.90;;;;;;5038673;28;20472;-84
2023/08/17 08:18:57;;;;;;;13.83;12.43;;;19.00;99.90;;;;;;5038669;28;20536;-83
2023/08/17 08:21:23;;;;;;;14.47;13.10;;;19.10;99.90;;;;;;5038303;28;20485;-85
2023/08/17 08:23:50;;;;;;;20.10;13.40;;;19.10;99.90;;;;;;5037991;28;20445;-85
2023/08/17 08:26:17;;;;;;;13.50;12.17;;;19.10;99.90;;;;;;5038304;28;20945;-83
2023/08/17 08:28:44;;;;;;;14.53;13.13;;;19.10;99.90;;;;;;5037501;28;20459;-85
2023/08/17 08:31:12;;;;;;;15.97;12.67;;;19.10;99.90;;;;;;5037501;28;20461;-84
2023/08/17 08:33:39;;;;;;;14.20;12.90;;;19.20;99.90;;;;;;5037565;28;20460;-84
2023/08/17 08:36:06;;;;;;;14.80;13.30;;;19.30;99.90;;;;;;5037405;28;20445;-83
2023/08/17 08:38:33;;;;;;;13.43;12.13;;;19.30;99.90;;;;;;5037230;28;20463;-84
2023/08/17 08:41:01;;;;;;;18.57;14.27;;;19.30;99.90;;;;;;5037937;28;20500;-84
2023/08/17 08:43:28;;;;;;;13.90;12.47;;;19.30;99.90;;;;;;5037999;28;20484;-84
2023/08/17 08:45:55;;;;;;;15.10;13.53;;;19.30;99.90;;;;;;5037433;28;20858;-85
2023/08/17 08:48:27;;;;;;;14.57;13.13;;;19.40;99.90;;;;;;5038057;28;20451;-84
2023/08/17 08:50:56;;;;;;;14.53;13.07;;;19.40;99.90;;;;;;5038602;28;20500;-83
2023/08/17 08:53:32;;;;;;;12.80;11.50;;;19.50;99.90;;;;;;5037109;28;20527;-83
2023/08/17 08:56:00;;;;;;;13.20;11.83;;;19.50;99.90;;;;;;5037443;28;20460;-84
2023/08/17 08:58:28;;;;;;;15.27;12.60;;;19.50;99.90;;;;;;5038306;28;20459;-84
2023/08/17 09:00:55;;;;;;;14.47;13.07;;;19.50;99.90;;;;;;5038278;28;20580;-84
2023/08/17 09:03:25;;;;;;;16.47;13.33;;;19.50;99.90;;;;;;5041817;28;20484;-85
2023/08/17 09:05:53;;;;;;;15.10;13.60;;;19.50;99.90;;;;;;5042754;28;21028;-85
2023/08/17 09:08:22;;;;;;;15.30;13.70;;;19.50;99.90;;;;;;5039997;28;20449;-85
2023/08/17 09:10:50;;;;;;;15.00;13.50;;;19.50;99.90;;;;;;5039580;28;20473;-85
2023/08/17 09:13:17;;;;;;;16.20;14.70;;;19.50;99.90;;;;;;5039165;28;20991;-84
2023/08/17 09:15:44;;;;;;;18.33;15.23;;;19.50;99.90;;;;;;5039354;28;20445;-84
2023/08/17 09:18:11;;;;;;;18.60;16.10;;;19.50;99.90;;;;;;5038169;28;20540;-85
2023/08/17 09:20:41;;;;;;;14.73;13.23;;;19.50;99.90;;;;;;5037625;28;20579;-84
2023/08/17 09:23:13;;;;;;;17.73;16.13;;;19.50;99.90;;;;;;5037894;28;20484;-84
2023/08/17 09:25:41;;;;;;;17.03;15.43;;;19.50;99.90;;;;;;5037291;28;20453;-85
2023/08/17 09:28:09;;;;;;;18.03;15.90;;;19.50;99.90;;;;;;5036782;28;20535;-84
2023/08/17 09:30:51;;;;;;;20.43;18.37;;;19.50;99.90;;;;;;5036893;28;20465;-84
2023/08/17 09:33:18;;;;;;;21.53;19.53;;;19.50;99.90;;;;;;5037621;28;20457;-83
2023/08/17 09:35:46;;;;;;;27.07;23.67;;;19.50;99.90;;;;;;5036863;28;20452;-85
2023/08/17 09:38:13;;;;;;;29.50;24.13;;;19.60;99.90;;;;;;5037205;28;20445;-85
2023/08/17 09:40:40;;;;;;;28.40;22.17;;;19.60;99.90;;;;;;5036101;28;20583;-83
2023/08/17 09:43:07;;;;;;;19.30;16.10;;;19.70;99.90;;;;;;5036529;28;20525;-86
2023/08/17 09:45:34;;;;;;;15.90;13.57;;;19.70;99.90;;;;;;5035548;28;20459;-85
2023/08/17 09:48:02;;;;;;;15.90;14.10;;;19.70;99.90;;;;;;5036668;28;20476;-84
2023/08/17 09:50:29;;;;;;;14.90;12.47;;;19.70;99.90;;;;;;5035884;28;20539;-84
2023/08/17 09:52:57;;;;;;;16.23;14.53;;;19.70;99.90;;;;;;5035767;28;20449;-84
2023/08/17 09:55:24;;;;;;;17.40;12.90;;;19.70;99.90;;;;;;5035892;28;21137;-85
2023/08/17 09:57:52;;;;;;;14.90;12.53;;;19.70;99.90;;;;;;5035798;28;20543;-84
2023/08/17 10:00:20;;;;;;;15.37;13.87;;;19.70;99.90;;;;;;5035477;28;20498;-84
2023/08/17 10:02:51;;;;;;;15.47;13.87;;;19.80;99.90;;;;;;5036545;28;20447;-85
2023/08/17 10:05:20;;;;;;;16.17;14.37;;;19.70;99.90;;;;;;5036094;28;20440;-83
2023/08/17 10:07:52;;;;;;;17.03;15.23;;;19.80;99.90;;;;;;5036625;28;20445;-85
2023/08/17 10:10:26;;;;;;;17.40;15.20;;;19.90;99.90;;;;;;5036400;28;20529;-83
2023/08/17 10:13:04;;;;;;;17.13;15.00;;;19.90;99.90;;;;;;5036188;28;20509;-85
2023/08/17 10:15:32;;;;;;;19.60;17.27;;;20.00;99.90;;;;;;5035838;28;20457;-85
2023/08/17 10:18:07;;;;;;;19.27;17.27;;;20.00;99.90;;;;;;5035559;28;20499;-84
2023/08/17 10:20:37;;;;;;;20.40;17.80;;;20.10;99.90;;;;;;5035399;28;20567;-84
2023/08/17 10:23:16;;;;;;;22.37;19.97;;;20.20;99.90;;;;;;5033948;28;20454;-84
2023/08/17 10:25:45;;;;;;;20.03;17.50;;;20.20;99.90;;;;;;5033462;28;20519;-83
2023/08/17 10:28:12;;;;;;;20.93;18.50;;;20.30;99.90;;;;;;5034286;28;20460;-86
2023/08/17 10:30:40;;;;;;;21.67;17.97;;;20.30;99.90;;;;;;5035500;28;20461;-85
2023/08/17 10:33:08;;;;;;;25.10;22.40;;;20.30;99.90;;;;;;5028544;28;20854;-84
2023/08/17 10:35:36;;;;;;;27.80;24.83;;;20.40;99.90;;;;;;5031567;28;20565;-83
2023/08/17 10:38:04;;;;;;;29.97;26.83;;;20.30;99.90;;;;;;5023028;28;20453;-83
2023/08/17 10:40:37;;;;;;;30.80;25.37;;;20.40;99.90;;;;;;5021880;28;20839;-83
2023/08/17 10:43:05;;;;;;;30.53;26.60;;;20.50;99.90;;;;;;5021486;28;20843;-85
2023/08/17 10:45:34;;;;;;;30.37;27.23;;;20.60;99.90;;;;;;5022471;28;20464;-84
2023/08/17 10:48:17;;;;;;;30.83;27.53;;;20.70;99.90;;;;;;5019772;28;20450;-84
2023/08/17 10:51:00;;;;;;;32.00;28.60;;;20.80;99.90;;;;;;5009654;28;20469;-83
2023/08/17 10:53:27;;;;;;;27.90;25.03;;;20.70;99.90;;;;;;5016288;28;20458;-83
2023/08/17 10:55:58;;;;;;;30.70;27.17;;;20.80;99.90;;;;;;5018199;28;20544;-82
2023/08/17 10:58:26;;;;;;;29.07;25.40;;;20.80;99.90;;;;;;5018054;28;20503;-84
2023/08/17 11:00:56;;;;;;;33.17;29.07;;;20.90;99.90;;;;;;5020893;28;20572;-84
2023/08/17 11:03:24;;;;;;;29.50;26.33;;;20.80;99.90;;;;;;5020897;28;20497;-85
2023/08/17 11:05:53;;;;;;;30.77;27.33;;;20.80;99.90;;;;;;5020282;28;20445;-81
2023/08/17 11:08:28;;;;;;;29.10;26.00;;;20.80;99.90;;;;;;5021386;28;20450;-83
2023/08/17 11:11:00;;;;;;;33.60;27.70;;;20.80;99.90;;;;;;5028066;28;20468;-84
2023/08/17 11:13:31;;;;;;;28.40;25.03;;;20.80;99.90;;;;;;5039256;28;21052;-83
2023/08/17 11:15:59;;;;;;;32.87;28.50;;;20.70;99.90;;;;;;5031989;28;20465;-84
2023/08/17 11:18:26;;;;;;;31.30;27.70;;;20.70;99.90;;;;;;5020846;28;20449;-83
2023/08/17 11:20:53;;;;;;;32.50;28.67;;;20.70;99.90;;;;;;5020327;28;20584;-83
2023/08/17 11:23:21;;;;;;;29.80;26.30;;;20.70;99.90;;;;;;5022977;28;20513;-82
2023/08/17 11:25:48;;;;;;;31.30;27.90;;;20.70;99.90;;;;;;5023602;28;20480;-84
2023/08/17 11:28:15;;;;;;;31.43;28.03;;;20.70;99.90;;;;;;5023651;28;20458;-82
2023/08/17 11:30:44;;;;;;;29.30;26.33;;;20.80;99.90;;;;;;5024060;28;20465;-82
2023/08/17 11:33:11;;;;;;;27.37;24.50;;;20.80;99.90;;;;;;5020073;28;20954;-83
2023/08/17 11:35:39;;;;;;;28.13;25.20;;;20.80;99.90;;;;;;5025542;28;20511;-83
2023/08/17 11:38:07;;;;;;;28.67;25.70;;;20.80;99.90;;;;;;5045281;28;20457;-84
2023/08/17 11:40:35;;;;;;;27.43;23.93;;;20.80;99.90;;;;;;5045524;28;20563;-85
2023/08/17 11:43:02;;;;;;;28.33;25.43;;;20.80;99.90;;;;;;5065234;22;20492;-81
2023/08/17 11:45:29;;;;;;;27.10;24.40;;;20.80;99.90;;;;;;5052258;28;20462;-81
2023/08/17 11:47:57;;;;;;;30.10;27.10;;;20.80;99.90;;;;;;5056982;28;20948;-82
2023/08/17 11:50:26;;;;;;;30.47;27.30;;;20.80;99.90;;;;;;5042621;28;20479;-83
2023/08/17 11:52:52;;;;;;;29.33;26.53;;;20.80;99.90;;;;;;5036662;28;20481;-81
2023/08/17 11:55:20;;;;;;;29.47;26.37;;;20.80;99.90;;;;;;5036602;28;20448;-81
2023/08/17 11:57:47;;;;;;;29.93;26.93;;;20.80;99.90;;;;;;5037363;28;20455;-81
2023/08/17 12:00:19;;;;;;;32.30;28.90;;;20.80;99.90;;;;;;5037652;28;20451;-83
2023/08/17 12:02:48;;;;;;;29.43;26.27;;;20.80;99.90;;;;;;5038177;28;20496;-81
2023/08/17 12:05:20;;;;;;;21.33;18.97;;;20.80;99.90;;;;;;5036693;28;20547;-82
2023/08/17 12:07:47;;;;;;;18.23;16.30;;;20.80;99.90;;;;;;5037353;28;20452;-81
2023/08/17 12:10:14;;;;;;;15.30;13.37;;;20.70;99.90;;;;;;5036669;28;20535;-81
2023/08/17 12:12:41;;;;;;;14.90;13.30;;;20.70;99.90;;;;;;5036016;28;20973;-82
2023/08/17 12:15:10;;;;;;;14.00;12.50;;;20.70;99.90;;;;;;5035502;28;20844;-82
2023/08/17 12:17:41;;;;;;;14.10;12.60;;;20.70;99.90;;;;;;5018972;28;20449;-81
2023/08/17 12:20:09;;;;;;;18.20;13.60;;;20.70;99.90;;;;;;5018686;28;20457;-82
2023/08/17 12:22:40;;;;;;;19.97;13.90;;;20.60;99.90;;;;;;5018164;28;20495;-81
2023/08/17 12:25:09;;;;;;;14.27;12.77;;;20.60;99.90;;;;;;5018048;28;20903;-81
2023/08/17 12:27:36;;;;;;;13.07;11.77;;;20.60;99.90;;;;;;5019180;28;20454;-83
2023/08/17 12:30:03;;;;;;;15.40;13.13;;;20.60;99.90;;;;;;5029646;28;20830;-82
2023/08/17 12:32:30;;;;;;;15.03;13.63;;;20.60;99.90;;;;;;5037144;28;20712;-81
2023/08/17 12:34:57;;;;;;;13.70;12.30;;;20.50;99.90;;;;;;5036647;28;20896;-79
2023/08/17 12:37:24;;;;;;;17.20;13.63;;;20.60;99.90;;;;;;5037210;28;20444;-83
2023/08/17 12:39:52;;;;;;;16.70;13.03;;;20.60;99.90;;;;;;5036799;28;20467;-83
2023/08/17 12:42:19;;;;;;;15.33;13.73;;;20.60;99.90;;;;;;5037440;28;20488;-81